sensor_id;sensor_type;location;lat;lon;timestamp;pressure;altitude;pressure_sealevel;temperature;humidity
21623;BME280;10973;46.706;12.340;2022-10-17T00:00:58;88486.31;;;10.48;53.94
21623;BME280;10973;46.706;12.340;2022-10-17T00:03:25;88489.28;;;10.47;54.41
21623;BME280;10973;46.706;12.340;2022-10-17T00:05:53;88484.69;;;10.44;54.00
21623;BME280;10973;46.706;12.340;2022-10-17T00:08:20;88486.13;;;10.41;53.99
21623;BME280;10973;46.706;12.340;2022-10-17T00:11:01;88487.16;;;10.37;54.16
21623;BME280;10973;46.706;12.340;2022-10-17T00:13:29;88493.81;;;10.31;54.25
21623;BME280;10973;46.706;12.340;2022-10-17T00:15:56;88494.41;;;10.24;54.09
21623;BME280;10973;46.706;12.340;2022-10-17T00:18:24;88498.06;;;10.20;54.32
21623;BME280;10973;46.706;12.340;2022-10-17T00:20:52;88499.16;;;10.19;54.46
21623;BME280;10973;46.706;12.340;2022-10-17T00:23:20;88499.06;;;10.15;54.21
21623;BME280;10973;46.706;12.340;2022-10-17T00:25:47;88505.78;;;10.13;54.40
21623;BME280;10973;46.706;12.340;2022-10-17T00:28:23;88503.38;;;10.07;54.80
21623;BME280;10973;46.706;12.340;2022-10-17T00:31:03;88504.81;;;10.05;54.26
21623;BME280;10973;46.706;12.340;2022-10-17T00:33:33;88511.50;;;10.02;54.15
21623;BME280;10973;46.706;12.340;2022-10-17T00:36:17;88509.13;;;9.97;53.98
21623;BME280;10973;46.706;12.340;2022-10-17T00:38:48;88513.97;;;9.95;54.13
21623;BME280;10973;46.706;12.340;2022-10-17T00:41:20;88512.28;;;9.87;54.25
21623;BME280;10973;46.706;12.340;2022-10-17T00:46:54;88508.00;;;9.83;54.44
21623;BME280;10973;46.706;12.340;2022-10-17T00:49:25;88508.34;;;9.81;54.44
21623;BME280;10973;46.706;12.340;2022-10-17T00:51:59;88506.41;;;9.78;54.30
21623;BME280;10973;46.706;12.340;2022-10-17T00:54:34;88497.66;;;9.74;54.36
21623;BME280;10973;46.706;12.340;2022-10-17T00:57:05;88501.38;;;9.73;54.71
21623;BME280;10973;46.706;12.340;2022-10-17T00:59:35;88501.44;;;9.77;54.65
21623;BME280;10973;46.706;12.340;2022-10-17T01:02:09;88504.84;;;9.77;54.77
21623;BME280;10973;46.706;12.340;2022-10-17T01:04:43;88502.22;;;9.77;54.85
21623;BME280;10973;46.706;12.340;2022-10-17T01:07:11;88505.97;;;9.76;54.84
21623;BME280;10973;46.706;12.340;2022-10-17T01:09:39;88496.09;;;9.73;54.88
21623;BME280;10973;46.706;12.340;2022-10-17T01:12:36;88498.66;;;9.70;55.10
21623;BME280;10973;46.706;12.340;2022-10-17T01:22:00;88511.09;;;9.57;55.11
21623;BME280;10973;46.706;12.340;2022-10-17T01:32:57;88509.84;;;9.39;55.18
21623;BME280;10973;46.706;12.340;2022-10-17T01:35:34;88509.09;;;9.39;54.93
21623;BME280;10973;46.706;12.340;2022-10-17T01:38:22;88509.00;;;9.35;55.12
21623;BME280;10973;46.706;12.340;2022-10-17T01:43:49;88499.81;;;9.29;55.03
21623;BME280;10973;46.706;12.340;2022-10-17T01:46:31;88508.81;;;9.28;54.95
21623;BME280;10973;46.706;12.340;2022-10-17T01:49:06;88505.31;;;9.24;54.94
21623;BME280;10973;46.706;12.340;2022-10-17T01:52:03;88511.66;;;9.23;55.23
21623;BME280;10973;46.706;12.340;2022-10-17T01:54:39;88512.78;;;9.22;55.34
21623;BME280;10973;46.706;12.340;2022-10-17T01:57:17;88510.16;;;9.22;55.22
21623;BME280;10973;46.706;12.340;2022-10-17T01:59:50;88508.59;;;9.21;55.17
21623;BME280;10973;46.706;12.340;2022-10-17T02:02:20;88516.50;;;9.21;55.31
21623;BME280;10973;46.706;12.340;2022-10-17T02:04:50;88507.41;;;9.18;55.36
21623;BME280;10973;46.706;12.340;2022-10-17T02:07:18;88511.47;;;9.16;55.40
21623;BME280;10973;46.706;12.340;2022-10-17T02:09:45;88509.94;;;9.15;55.55
21623;BME280;10973;46.706;12.340;2022-10-17T02:13:03;88515.22;;;9.15;55.46
21623;BME280;10973;46.706;12.340;2022-10-17T02:22:04;88511.25;;;9.09;56.01
21623;BME280;10973;46.706;12.340;2022-10-17T02:25:14;88500.75;;;9.09;55.57
21623;BME280;10973;46.706;12.340;2022-10-17T02:27:55;88508.19;;;9.07;55.91
21623;BME280;10973;46.706;12.340;2022-10-17T02:33:48;88501.09;;;8.95;55.94
21623;BME280;10973;46.706;12.340;2022-10-17T02:36:25;88501.88;;;8.96;55.74
21623;BME280;10973;46.706;12.340;2022-10-17T02:38:56;88511.63;;;8.95;55.57
21623;BME280;10973;46.706;12.340;2022-10-17T02:41:25;88505.16;;;8.93;55.82
21623;BME280;10973;46.706;12.340;2022-10-17T02:43:53;88518.66;;;8.91;55.84
21623;BME280;10973;46.706;12.340;2022-10-17T02:46:27;88515.50;;;8.86;55.86
21623;BME280;10973;46.706;12.340;2022-10-17T02:49:27;88519.66;;;8.87;55.67
21623;BME280;10973;46.706;12.340;2022-10-17T02:58:03;88512.53;;;8.75;55.61
21623;BME280;10973;46.706;12.340;2022-10-17T03:00:33;88517.16;;;8.78;55.68
21623;BME280;10973;46.706;12.340;2022-10-17T03:03:17;88519.66;;;8.75;55.79
21623;BME280;10973;46.706;12.340;2022-10-17T03:05:45;88517.72;;;8.72;55.89
21623;BME280;10973;46.706;12.340;2022-10-17T03:08:12;88522.09;;;8.68;55.81
21623;BME280;10973;46.706;12.340;2022-10-17T03:10:39;88523.84;;;8.63;55.77
21623;BME280;10973;46.706;12.340;2022-10-17T03:13:07;88524.94;;;8.63;55.92
21623;BME280;10973;46.706;12.340;2022-10-17T03:15:34;88521.63;;;8.66;55.70
21623;BME280;10973;46.706;12.340;2022-10-17T03:18:01;88517.50;;;8.65;55.80
21623;BME280;10973;46.706;12.340;2022-10-17T03:20:29;88525.38;;;8.65;55.75
21623;BME280;10973;46.706;12.340;2022-10-17T03:22:56;88530.97;;;8.63;55.96
21623;BME280;10973;46.706;12.340;2022-10-17T03:25:24;88528.13;;;8.56;56.03
21623;BME280;10973;46.706;12.340;2022-10-17T03:27:51;88531.50;;;8.56;55.83
21623;BME280;10973;46.706;12.340;2022-10-17T03:30:19;88525.16;;;8.57;55.82
21623;BME280;10973;46.706;12.340;2022-10-17T03:32:46;88536.75;;;8.56;55.93
21623;BME280;10973;46.706;12.340;2022-10-17T03:35:14;88536.00;;;8.56;55.84
21623;BME280;10973;46.706;12.340;2022-10-17T03:37:41;88535.22;;;8.55;55.77
21623;BME280;10973;46.706;12.340;2022-10-17T03:40:09;88539.72;;;8.55;55.51
21623;BME280;10973;46.706;12.340;2022-10-17T03:42:37;88539.63;;;8.51;55.92
21623;BME280;10973;46.706;12.340;2022-10-17T03:45:05;88541.81;;;8.49;56.04
21623;BME280;10973;46.706;12.340;2022-10-17T03:47:33;88542.03;;;8.44;55.93
21623;BME280;10973;46.706;12.340;2022-10-17T03:50:01;88539.72;;;8.43;55.74
21623;BME280;10973;46.706;12.340;2022-10-17T03:52:28;88535.91;;;8.40;55.94
21623;BME280;10973;46.706;12.340;2022-10-17T03:54:56;88535.78;;;8.37;55.95
21623;BME280;10973;46.706;12.340;2022-10-17T03:57:24;88542.13;;;8.36;56.29
21623;BME280;10973;46.706;12.340;2022-10-17T03:59:51;88542.44;;;8.34;56.26
21623;BME280;10973;46.706;12.340;2022-10-17T04:02:19;88541.25;;;8.32;56.45
21623;BME280;10973;46.706;12.340;2022-10-17T04:04:46;88541.16;;;8.28;56.49
21623;BME280;10973;46.706;12.340;2022-10-17T04:07:14;88543.00;;;8.28;56.45
21623;BME280;10973;46.706;12.340;2022-10-17T04:09:42;88541.25;;;8.32;56.15
21623;BME280;10973;46.706;12.340;2022-10-17T04:12:09;88545.75;;;8.31;56.05
21623;BME280;10973;46.706;12.340;2022-10-17T04:14:37;88544.19;;;8.30;56.30
21623;BME280;10973;46.706;12.340;2022-10-17T04:17:04;88544.09;;;8.27;56.20
21623;BME280;10973;46.706;12.340;2022-10-17T04:19:32;88549.97;;;8.24;56.17
21623;BME280;10973;46.706;12.340;2022-10-17T04:21:59;88545.81;;;8.23;56.21
21623;BME280;10973;46.706;12.340;2022-10-17T04:24:26;88548.63;;;8.18;56.15
21623;BME280;10973;46.706;12.340;2022-10-17T04:26:54;88552.03;;;8.18;56.11
21623;BME280;10973;46.706;12.340;2022-10-17T04:29:21;88546.56;;;8.11;56.62
21623;BME280;10973;46.706;12.340;2022-10-17T04:31:48;88546.56;;;8.11;56.54
21623;BME280;10973;46.706;12.340;2022-10-17T04:34:16;88553.34;;;8.12;56.46
21623;BME280;10973;46.706;12.340;2022-10-17T04:36:43;88547.53;;;8.07;56.66
21623;BME280;10973;46.706;12.340;2022-10-17T04:39:10;88550.16;;;8.07;56.30
21623;BME280;10973;46.706;12.340;2022-10-17T04:41:42;88551.56;;;8.04;56.57
21623;BME280;10973;46.706;12.340;2022-10-17T04:44:10;88555.75;;;8.05;56.43
21623;BME280;10973;46.706;12.340;2022-10-17T04:46:38;88550.94;;;8.07;56.08
21623;BME280;10973;46.706;12.340;2022-10-17T04:49:05;88558.03;;;8.07;56.31
21623;BME280;10973;46.706;12.340;2022-10-17T04:51:33;88543.25;;;8.02;56.49
21623;BME280;10973;46.706;12.340;2022-10-17T04:54:00;88547.44;;;8.03;56.80
21623;BME280;10973;46.706;12.340;2022-10-17T04:56:27;88555.94;;;8.00;56.87
21623;BME280;10973;46.706;12.340;2022-10-17T04:58:55;88561.53;;;7.99;56.41
21623;BME280;10973;46.706;12.340;2022-10-17T05:01:23;88563.28;;;7.95;56.54
21623;BME280;10973;46.706;12.340;2022-10-17T05:03:52;88562.50;;;7.94;56.24
21623;BME280;10973;46.706;12.340;2022-10-17T05:06:23;88554.97;;;7.93;56.02
21623;BME280;10973;46.706;12.340;2022-10-17T05:08:51;88554.84;;;7.89;56.18
21623;BME280;10973;46.706;12.340;2022-10-17T05:11:27;88558.88;;;7.86;56.29
21623;BME280;10973;46.706;12.340;2022-10-17T05:14:00;88563.03;;;7.87;56.09
21623;BME280;10973;46.706;12.340;2022-10-17T05:16:29;88565.22;;;7.85;56.41
21623;BME280;10973;46.706;12.340;2022-10-17T05:18:57;88560.41;;;7.87;56.49
21623;BME280;10973;46.706;12.340;2022-10-17T05:21:27;88567.50;;;7.87;56.42
21623;BME280;10973;46.706;12.340;2022-10-17T05:23:55;88557.66;;;7.84;56.50
21623;BME280;10973;46.706;12.340;2022-10-17T05:26:24;88564.31;;;7.81;56.57
21623;BME280;10973;46.706;12.340;2022-10-17T05:28:52;88568.94;;;7.84;56.74
21623;BME280;10973;46.706;12.340;2022-10-17T05:31:19;88561.81;;;7.85;56.95
21623;BME280;10973;46.706;12.340;2022-10-17T05:33:46;88566.75;;;7.86;57.06
21623;BME280;10973;46.706;12.340;2022-10-17T05:36:14;88569.06;;;7.88;57.18
21623;BME280;10973;46.706;12.340;2022-10-17T05:38:41;88572.75;;;7.87;57.04
21623;BME280;10973;46.706;12.340;2022-10-17T05:41:09;88568.16;;;7.84;57.22
21623;BME280;10973;46.706;12.340;2022-10-17T05:43:37;88572.66;;;7.83;57.25
21623;BME280;10973;46.706;12.340;2022-10-17T05:46:05;88578.66;;;7.84;57.33
21623;BME280;10973;46.706;12.340;2022-10-17T05:48:34;88584.56;;;7.81;57.26
21623;BME280;10973;46.706;12.340;2022-10-17T05:51:07;88585.31;;;7.81;57.27
21623;BME280;10973;46.706;12.340;2022-10-17T05:53:40;88583.66;;;7.77;57.46
21623;BME280;10973;46.706;12.340;2022-10-17T05:56:10;88585.66;;;7.80;57.46
21623;BME280;10973;46.706;12.340;2022-10-17T05:58:42;88596.28;;;7.83;57.49
21623;BME280;10973;46.706;12.340;2022-10-17T06:01:23;88600.41;;;7.84;57.55
21623;BME280;10973;46.706;12.340;2022-10-17T06:03:51;88598.22;;;7.86;57.70
21623;BME280;10973;46.706;12.340;2022-10-17T06:06:18;88599.44;;;7.89;57.73
21623;BME280;10973;46.706;12.340;2022-10-17T06:08:46;88602.06;;;7.89;57.78
21623;BME280;10973;46.706;12.340;2022-10-17T06:11:13;88598.38;;;7.90;57.70
21623;BME280;10973;46.706;12.340;2022-10-17T06:13:41;88603.94;;;7.88;57.57
21623;BME280;10973;46.706;12.340;2022-10-17T06:16:08;88609.94;;;7.89;57.66
21623;BME280;10973;46.706;12.340;2022-10-17T06:18:35;88606.88;;;7.87;57.69
21623;BME280;10973;46.706;12.340;2022-10-17T06:21:08;88612.47;;;7.85;57.83
21623;BME280;10973;46.706;12.340;2022-10-17T06:23:36;88619.13;;;7.83;57.90
21623;BME280;10973;46.706;12.340;2022-10-17T06:26:05;88626.56;;;7.81;57.95
21623;BME280;10973;46.706;12.340;2022-10-17T06:28:34;88629.19;;;7.81;57.89
21623;BME280;10973;46.706;12.340;2022-10-17T06:31:08;88630.06;;;7.85;58.10
21623;BME280;10973;46.706;12.340;2022-10-17T06:33:36;88621.84;;;7.86;57.99
21623;BME280;10973;46.706;12.340;2022-10-17T06:36:06;88626.47;;;7.89;57.99
21623;BME280;10973;46.706;12.340;2022-10-17T06:38:34;88630.13;;;7.97;58.10
21623;BME280;10973;46.706;12.340;2022-10-17T06:41:08;88625.06;;;8.04;58.31
21623;BME280;10973;46.706;12.340;2022-10-17T06:43:36;88632.13;;;8.12;58.55
21623;BME280;10973;46.706;12.340;2022-10-17T06:46:04;88640.22;;;8.19;58.63
21623;BME280;10973;46.706;12.340;2022-10-17T06:48:32;88628.88;;;8.27;58.59
21623;BME280;10973;46.706;12.340;2022-10-17T06:51:01;88634.38;;;8.34;58.71
21623;BME280;10973;46.706;12.340;2022-10-17T06:53:33;88641.06;;;8.44;58.73
21623;BME280;10973;46.706;12.340;2022-10-17T06:56:01;88633.75;;;8.49;58.77
21623;BME280;10973;46.706;12.340;2022-10-17T06:58:34;88641.09;;;8.56;58.85
21623;BME280;10973;46.706;12.340;2022-10-17T07:01:06;88637.50;;;8.60;58.86
21623;BME280;10973;46.706;12.340;2022-10-17T07:03:35;88641.44;;;8.67;58.88
21623;BME280;10973;46.706;12.340;2022-10-17T07:06:04;88642.44;;;8.74;58.84
21623;BME280;10973;46.706;12.340;2022-10-17T07:08:31;88637.41;;;8.81;59.00
21623;BME280;10973;46.706;12.340;2022-10-17T07:11:07;88642.53;;;8.90;58.84
21623;BME280;10973;46.706;12.340;2022-10-17T07:13:35;88631.91;;;8.98;58.90
21623;BME280;10973;46.706;12.340;2022-10-17T07:16:06;88630.69;;;9.08;58.93
21623;BME280;10973;46.706;12.340;2022-10-17T07:18:34;88637.03;;;9.19;59.12
21623;BME280;10973;46.706;12.340;2022-10-17T07:21:01;88632.09;;;9.29;59.32
21623;BME280;10973;46.706;12.340;2022-10-17T07:23:29;88636.25;;;9.43;59.44
21623;BME280;10973;46.706;12.340;2022-10-17T07:26:03;88640.03;;;9.57;59.80
21623;BME280;10973;46.706;12.340;2022-10-17T07:28:30;88635.06;;;9.68;60.19
21623;BME280;10973;46.706;12.340;2022-10-17T07:31:14;88626.78;;;9.81;59.98
21623;BME280;10973;46.706;12.340;2022-10-17T07:33:42;88622.63;;;9.92;59.93
21623;BME280;10973;46.706;12.340;2022-10-17T07:36:13;88622.13;;;10.02;59.65
21623;BME280;10973;46.706;12.340;2022-10-17T07:38:46;88619.47;;;10.15;59.56
21623;BME280;10973;46.706;12.340;2022-10-17T07:41:14;88617.03;;;10.22;59.68
21623;BME280;10973;46.706;12.340;2022-10-17T07:43:47;88619.50;;;10.30;60.11
21623;BME280;10973;46.706;12.340;2022-10-17T07:46:15;88618.25;;;10.40;60.13
21623;BME280;10973;46.706;12.340;2022-10-17T07:48:42;88614.66;;;10.48;59.80
21623;BME280;10973;46.706;12.340;2022-10-17T07:51:09;88614.59;;;10.60;59.67
21623;BME280;10973;46.706;12.340;2022-10-17T07:53:38;88626.53;;;10.69;59.58
21623;BME280;10973;46.706;12.340;2022-10-17T07:56:11;88621.84;;;10.79;59.42
21623;BME280;10973;46.706;12.340;2022-10-17T07:58:38;88618.59;;;10.85;58.95
21623;BME280;10973;46.706;12.340;2022-10-17T08:01:09;88619.88;;;10.91;58.65
21623;BME280;10973;46.706;12.340;2022-10-17T08:03:43;88622.00;;;11.01;58.88
21623;BME280;10973;46.706;12.340;2022-10-17T08:06:11;88625.56;;;11.09;58.88
21623;BME280;10973;46.706;12.340;2022-10-17T08:08:40;88628.09;;;11.21;58.73
21623;BME280;10973;46.706;12.340;2022-10-17T08:11:11;88630.22;;;11.31;58.72
21623;BME280;10973;46.706;12.340;2022-10-17T08:13:40;88621.28;;;11.35;58.47
21623;BME280;10973;46.706;12.340;2022-10-17T08:16:10;88620.31;;;11.43;58.21
21623;BME280;10973;46.706;12.340;2022-10-17T08:18:40;88623.88;;;11.51;57.94
21623;BME280;10973;46.706;12.340;2022-10-17T08:21:08;88620.28;;;11.59;57.68
21623;BME280;10973;46.706;12.340;2022-10-17T08:23:36;88626.56;;;11.70;57.66
21623;BME280;10973;46.706;12.340;2022-10-17T08:26:07;88611.63;;;11.78;57.42
21623;BME280;10973;46.706;12.340;2022-10-17T08:28:37;88611.44;;;11.86;57.28
21623;BME280;10973;46.706;12.340;2022-10-17T08:31:11;88609.72;;;11.94;56.91
21623;BME280;10973;46.706;12.340;2022-10-17T08:33:41;88617.06;;;12.04;56.61
21623;BME280;10973;46.706;12.340;2022-10-17T08:36:11;88617.19;;;12.11;56.61
21623;BME280;10973;46.706;12.340;2022-10-17T08:38:40;88618.47;;;12.17;56.86
21623;BME280;10973;46.706;12.340;2022-10-17T08:41:36;88617.88;;;12.27;56.83
21623;BME280;10973;46.706;12.340;2022-10-17T08:47:20;88613.69;;;12.45;56.37
21623;BME280;10973;46.706;12.340;2022-10-17T08:50:04;88611.94;;;12.53;56.39
21623;BME280;10973;46.706;12.340;2022-10-17T08:53:31;88611.03;;;12.64;56.03
21623;BME280;10973;46.706;12.340;2022-10-17T08:56:06;88611.16;;;12.71;55.83
21623;BME280;10973;46.706;12.340;2022-10-17T08:58:46;88607.16;;;12.81;55.68
21623;BME280;10973;46.706;12.340;2022-10-17T09:01:32;88607.25;;;12.88;55.55
21623;BME280;10973;46.706;12.340;2022-10-17T09:19:23;88591.94;;;13.46;54.41
21623;BME280;10973;46.706;12.340;2022-10-17T09:22:07;88581.47;;;13.56;54.84
21623;BME280;10973;46.706;12.340;2022-10-17T09:24:45;88584.28;;;13.67;54.92
21623;BME280;10973;46.706;12.340;2022-10-17T09:33:17;88574.03;;;13.95;54.02
21623;BME280;10973;46.706;12.340;2022-10-17T09:38:46;88569.38;;;14.15;53.37
21623;BME280;10973;46.706;12.340;2022-10-17T09:41:26;88567.19;;;14.24;53.28
21623;BME280;10973;46.706;12.340;2022-10-17T09:44:30;88573.41;;;14.35;53.95
21623;BME280;10973;46.706;12.340;2022-10-17T09:47:14;88571.63;;;14.46;54.03
21623;BME280;10973;46.706;12.340;2022-10-17T09:49:47;88571.69;;;14.53;53.63
21623;BME280;10973;46.706;12.340;2022-10-17T09:52:39;88571.41;;;14.65;53.39
21623;BME280;10973;46.706;12.340;2022-10-17T09:55:48;88570.38;;;14.73;53.05
21623;BME280;10973;46.706;12.340;2022-10-17T09:58:13;88568.13;;;14.79;52.49
21623;BME280;10973;46.706;12.340;2022-10-17T10:00:45;88568.59;;;14.88;52.82
21623;BME280;10973;46.706;12.340;2022-10-17T10:03:21;88566.41;;;14.97;52.27
21623;BME280;10973;46.706;12.340;2022-10-17T10:06:17;88564.63;;;15.08;51.47
21623;BME280;10973;46.706;12.340;2022-10-17T10:08:57;88565.78;;;15.14;50.24
21623;BME280;10973;46.706;12.340;2022-10-17T10:11:57;88556.03;;;15.29;49.52
21623;BME280;10973;46.706;12.340;2022-10-17T10:14:34;88557.22;;;15.35;49.09
21623;BME280;10973;46.706;12.340;2022-10-17T10:17:05;88560.38;;;15.47;48.97
21623;BME280;10973;46.706;12.340;2022-10-17T10:19:51;88553.22;;;15.55;48.81
21623;BME280;10973;46.706;12.340;2022-10-17T10:22:21;88557.84;;;15.68;48.33
21623;BME280;10973;46.706;12.340;2022-10-17T10:25:16;88550.72;;;15.83;48.32
21623;BME280;10973;46.706;12.340;2022-10-17T10:27:46;88546.19;;;15.91;49.20
21623;BME280;10973;46.706;12.340;2022-10-17T10:30:29;88543.59;;;16.01;48.46
21623;BME280;10973;46.706;12.340;2022-10-17T10:33:03;88541.75;;;16.12;48.21
21623;BME280;10973;46.706;12.340;2022-10-17T10:35:34;88534.94;;;16.25;50.69
21623;BME280;10973;46.706;12.340;2022-10-17T10:38:13;88535.75;;;16.33;51.59
21623;BME280;10973;46.706;12.340;2022-10-17T10:40:52;88541.47;;;16.42;49.60
21623;BME280;10973;46.706;12.340;2022-10-17T10:43:50;88549.50;;;16.53;50.25
21623;BME280;10973;46.706;12.340;2022-10-17T10:46:26;88546.47;;;16.61;48.07
21623;BME280;10973;46.706;12.340;2022-10-17T10:49:00;88542.69;;;16.73;48.10
21623;BME280;10973;46.706;12.340;2022-10-17T10:51:46;88541.19;;;16.86;48.66
21623;BME280;10973;46.706;12.340;2022-10-17T10:54:38;88538.16;;;16.98;49.79
21623;BME280;10973;46.706;12.340;2022-10-17T10:57:16;88534.75;;;17.15;48.56
21623;BME280;10973;46.706;12.340;2022-10-17T11:00:02;88531.72;;;17.55;47.19
21623;BME280;10973;46.706;12.340;2022-10-17T11:02:53;88535.28;;;18.42;46.30
21623;BME280;10973;46.706;12.340;2022-10-17T11:05:42;88527.81;;;19.91;43.54
21623;BME280;10973;46.706;12.340;2022-10-17T11:11:12;88521.97;;;23.03;37.88
21623;BME280;10973;46.706;12.340;2022-10-17T11:22:28;88516.41;;;27.16;29.35
21623;BME280;10973;46.706;12.340;2022-10-17T11:25:34;88513.19;;;27.91;29.04
21623;BME280;10973;46.706;12.340;2022-10-17T11:28:10;88511.81;;;28.36;27.49
21623;BME280;10973;46.706;12.340;2022-10-17T11:31:08;88511.88;;;28.99;27.91
21623;BME280;10973;46.706;12.340;2022-10-17T11:33:46;88502.38;;;29.31;26.59
21623;BME280;10973;46.706;12.340;2022-10-17T11:36:20;88499.44;;;29.61;26.55
21623;BME280;10973;46.706;12.340;2022-10-17T11:39:04;88498.84;;;29.76;25.86
21623;BME280;10973;46.706;12.340;2022-10-17T11:41:44;88501.47;;;29.94;24.76
21623;BME280;10973;46.706;12.340;2022-10-17T11:44:44;88499.31;;;30.07;25.10
21623;BME280;10973;46.706;12.340;2022-10-17T11:50:35;88498.63;;;30.21;24.45
21623;BME280;10973;46.706;12.340;2022-10-17T11:53:28;88495.34;;;30.08;24.01
21623;BME280;10973;46.706;12.340;2022-10-17T11:55:59;88492.94;;;30.10;24.32
21623;BME280;10973;46.706;12.340;2022-10-17T12:12:34;88481.13;;;28.84;24.26
21623;BME280;10973;46.706;12.340;2022-10-17T12:17:45;88471.91;;;28.36;24.73
21623;BME280;10973;46.706;12.340;2022-10-17T12:22:57;88472.84;;;27.93;25.19
21623;BME280;10973;46.706;12.340;2022-10-17T12:25:28;88474.16;;;27.80;25.71
21623;BME280;10973;46.706;12.340;2022-10-17T12:28:10;88472.56;;;27.61;24.93
21623;BME280;10973;46.706;12.340;2022-10-17T12:31:08;88470.69;;;27.39;24.90
21623;BME280;10973;46.706;12.340;2022-10-17T12:39:40;88466.75;;;27.10;25.25
21623;BME280;10973;46.706;12.340;2022-10-17T12:49:49;88469.13;;;26.64;24.82
21623;BME280;10973;46.706;12.340;2022-10-17T12:57:58;88466.94;;;26.16;26.89
21623;BME280;10973;46.706;12.340;2022-10-17T13:00:55;88463.16;;;26.01;26.87
21623;BME280;10973;46.706;12.340;2022-10-17T13:03:46;88460.94;;;25.87;26.94
21623;BME280;10973;46.706;12.340;2022-10-17T13:06:38;88464.53;;;25.71;27.38
21623;BME280;10973;46.706;12.340;2022-10-17T13:09:30;88464.84;;;25.61;27.64
21623;BME280;10973;46.706;12.340;2022-10-17T13:12:03;88463.75;;;25.58;27.81
21623;BME280;10973;46.706;12.340;2022-10-17T13:14:32;88468.53;;;25.54;27.83
21623;BME280;10973;46.706;12.340;2022-10-17T13:17:06;88463.56;;;25.53;27.88
21623;BME280;10973;46.706;12.340;2022-10-17T13:19:45;88464.53;;;25.46;28.74
21623;BME280;10973;46.706;12.340;2022-10-17T13:22:22;88459.31;;;25.39;27.43
21623;BME280;10973;46.706;12.340;2022-10-17T13:24:52;88467.31;;;25.30;28.12
21623;BME280;10973;46.706;12.340;2022-10-17T13:27:34;88461.69;;;25.24;28.20
21623;BME280;10973;46.706;12.340;2022-10-17T13:30:33;88477.34;;;25.17;28.10
21623;BME280;10973;46.706;12.340;2022-10-17T13:33:01;88468.19;;;25.14;29.57
21623;BME280;10973;46.706;12.340;2022-10-17T13:35:34;88472.56;;;25.08;29.60
21623;BME280;10973;46.706;12.340;2022-10-17T13:38:28;88465.56;;;25.11;28.30
21623;BME280;10973;46.706;12.340;2022-10-17T13:40:57;88464.28;;;25.03;28.95
21623;BME280;10973;46.706;12.340;2022-10-17T13:43:45;88461.97;;;24.89;29.38
21623;BME280;10973;46.706;12.340;2022-10-17T13:46:31;88460.81;;;24.90;29.42
21623;BME280;10973;46.706;12.340;2022-10-17T13:49:39;88457.16;;;24.96;29.25
21623;BME280;10973;46.706;12.340;2022-10-17T13:52:19;88463.41;;;25.06;28.67
21623;BME280;10973;46.706;12.340;2022-10-17T13:54:50;88472.81;;;25.14;29.14
21623;BME280;10973;46.706;12.340;2022-10-17T13:57:25;88476.03;;;25.09;29.13
21623;BME280;10973;46.706;12.340;2022-10-17T14:00:03;88467.28;;;25.05;29.31
21623;BME280;10973;46.706;12.340;2022-10-17T14:02:39;88469.66;;;25.03;29.16
21623;BME280;10973;46.706;12.340;2022-10-17T14:07:54;88470.97;;;24.98;29.54
21623;BME280;10973;46.706;12.340;2022-10-17T14:10:40;88469.34;;;25.01;29.37
21623;BME280;10973;46.706;12.340;2022-10-17T14:13:28;88477.53;;;24.97;29.18
21623;BME280;10973;46.706;12.340;2022-10-17T14:16:01;88469.09;;;24.83;29.36
21623;BME280;10973;46.706;12.340;2022-10-17T14:18:35;88475.38;;;24.63;30.33
21623;BME280;10973;46.706;12.340;2022-10-17T14:21:05;88480.59;;;24.42;30.60
21623;BME280;10973;46.706;12.340;2022-10-17T14:26:53;88485.28;;;23.93;31.00
21623;BME280;10973;46.706;12.340;2022-10-17T14:29:49;88487.75;;;23.55;31.46
21623;BME280;10973;46.706;12.340;2022-10-17T14:32:18;88482.81;;;23.18;32.20
21623;BME280;10973;46.706;12.340;2022-10-17T14:34:50;88484.91;;;22.75;32.49
21623;BME280;10973;46.706;12.340;2022-10-17T14:37:46;88486.19;;;22.27;33.37
21623;BME280;10973;46.706;12.340;2022-10-17T14:40:25;88492.69;;;21.87;34.17
21623;BME280;10973;46.706;12.340;2022-10-17T14:43:03;88495.94;;;21.52;35.09
21623;BME280;10973;46.706;12.340;2022-10-17T14:45:34;88499.88;;;21.20;35.62
21623;BME280;10973;46.706;12.340;2022-10-17T14:48:13;88494.78;;;20.99;36.34
21623;BME280;10973;46.706;12.340;2022-10-17T14:50:43;88502.38;;;20.74;36.91
21623;BME280;10973;46.706;12.340;2022-10-17T14:53:29;88490.78;;;20.54;37.20
21623;BME280;10973;46.706;12.340;2022-10-17T14:55:59;88490.59;;;20.38;38.03
21623;BME280;10973;46.706;12.340;2022-10-17T14:58:32;88489.97;;;20.27;38.29
21623;BME280;10973;46.706;12.340;2022-10-17T15:01:01;88495.44;;;20.16;38.48
21623;BME280;10973;46.706;12.340;2022-10-17T15:03:28;88488.31;;;20.03;38.59
21623;BME280;10973;46.706;12.340;2022-10-17T15:05:55;88499.16;;;19.88;39.65
21623;BME280;10973;46.706;12.340;2022-10-17T15:08:23;88500.06;;;19.75;39.65
21623;BME280;10973;46.706;12.340;2022-10-17T15:10:51;88497.50;;;19.61;39.82
21623;BME280;10973;46.706;12.340;2022-10-17T15:13:18;88497.25;;;19.48;40.01
21623;BME280;10973;46.706;12.340;2022-10-17T15:15:56;88501.91;;;19.34;40.74
21623;BME280;10973;46.706;12.340;2022-10-17T15:18:23;88502.78;;;19.23;41.46
21623;BME280;10973;46.706;12.340;2022-10-17T15:20:51;88505.88;;;19.15;41.57
21623;BME280;10973;46.706;12.340;2022-10-17T15:23:33;88510.13;;;19.09;41.81
21623;BME280;10973;46.706;12.340;2022-10-17T15:26:08;88513.25;;;18.97;42.16
21623;BME280;10973;46.706;12.340;2022-10-17T15:28:45;88507.22;;;18.86;42.44
21623;BME280;10973;46.706;12.340;2022-10-17T15:31:19;88513.38;;;18.79;42.30
21623;BME280;10973;46.706;12.340;2022-10-17T15:33:48;88519.53;;;18.73;42.55
21623;BME280;10973;46.706;12.340;2022-10-17T15:38:46;88522.63;;;18.64;42.56